createdAt,value
2022-11-17T00:01:37.004Z,97.24
2022-11-17T00:04:04.499Z,96.94
2022-11-17T00:06:31.974Z,96.00
2022-11-17T00:09:00.775Z,96.20
2022-11-17T00:11:48.206Z,95.80
2022-11-17T00:14:32.946Z,96.22
2022-11-17T00:17:00.563Z,96.20
2022-11-17T00:20:00.015Z,96.72
2022-11-17T00:22:27.482Z,96.20
2022-11-17T00:24:56.261Z,96.32
2022-11-17T00:27:23.753Z,95.76
2022-11-17T00:29:51.275Z,96.44
2022-11-17T00:32:37.905Z,95.95
2022-11-17T00:35:06.367Z,94.82
2022-11-17T00:37:35.373Z,94.82
2022-11-17T00:40:04.561Z,96.07
2022-11-17T00:42:32.043Z,96.50
2022-11-17T00:44:59.496Z,95.85
2022-11-17T00:47:26.948Z,95.93
2022-11-17T00:49:54.417Z,96.02
2022-11-17T00:52:21.877Z,95.88
2022-11-17T00:54:49.326Z,96.25
2022-11-17T00:57:18.163Z,96.25
2022-11-17T00:59:45.631Z,96.06
2022-11-17T01:02:13.079Z,96.48
2022-11-17T01:04:40.558Z,96.45
2022-11-17T01:07:08.082Z,96.04
2022-11-17T01:09:35.572Z,96.28
2022-11-17T01:12:03.023Z,96.15
2022-11-17T01:14:32.613Z,96.43
2022-11-17T01:17:00.056Z,96.07
2022-11-17T01:19:27.531Z,95.40
2022-11-17T01:21:54.951Z,95.67
2022-11-17T01:24:22.470Z,95.65
2022-11-17T01:26:51.764Z,95.71
2022-11-17T01:29:19.227Z,95.59
2022-11-17T01:31:51.443Z,96.46
2022-11-17T01:34:18.945Z,95.76
2022-11-17T01:37:03.974Z,95.77
2022-11-17T01:39:32.475Z,95.88
2022-11-17T01:42:04.115Z,95.82
2022-11-17T01:45:00.699Z,95.87
2022-11-17T01:47:37.383Z,94.77
2022-11-17T01:50:09.246Z,95.11
2022-11-17T01:52:38.387Z,95.95
2022-11-17T01:55:08.139Z,96.14
2022-11-17T01:57:39.916Z,95.31
2022-11-17T02:00:10.100Z,95.28
2022-11-17T02:02:40.356Z,95.10
2022-11-17T02:05:18.618Z,94.89
2022-11-17T02:07:46.236Z,94.85
2022-11-17T02:10:13.780Z,95.03
2022-11-17T02:12:41.920Z,94.58
2022-11-17T02:15:10.056Z,94.22
2022-11-17T02:17:41.335Z,94.76
2022-11-17T02:20:11.716Z,94.81
2022-11-17T02:23:11.355Z,94.73
2022-11-17T02:26:04.362Z,94.17
2022-11-17T02:28:34.231Z,94.14
2022-11-17T02:31:12.022Z,94.00
2022-11-17T02:33:47.061Z,94.60
2022-11-17T02:36:18.887Z,94.26
2022-11-17T02:38:54.273Z,94.28
2022-11-17T02:41:25.955Z,93.90
2022-11-17T02:44:05.558Z,93.62
2022-11-17T02:46:41.812Z,93.19
2022-11-17T02:49:15.066Z,93.49
2022-11-17T02:51:43.784Z,93.35
2022-11-17T02:54:12.417Z,93.41
2022-11-17T02:56:43.672Z,93.29
2022-11-17T02:59:14.270Z,92.92
2022-11-17T03:01:57.392Z,92.72
2022-11-17T03:04:31.543Z,93.51
2022-11-17T03:07:14.933Z,93.42
2022-11-17T03:09:48.292Z,93.64
2022-11-17T03:12:22.504Z,93.28
2022-11-17T03:15:02.970Z,93.77
2022-11-17T03:17:33.923Z,93.00
2022-11-17T03:20:05.179Z,92.83
2022-11-17T03:22:36.324Z,93.46
2022-11-17T03:25:05.915Z,92.62
2022-11-17T03:27:36.536Z,92.89
2022-11-17T03:30:08.191Z,92.45
2022-11-17T03:32:38.364Z,92.51
2022-11-17T03:35:08.611Z,92.32
2022-11-17T03:37:38.226Z,92.62
2022-11-17T03:40:10.024Z,92.58
2022-11-17T03:42:39.364Z,92.36
2022-11-17T03:45:12.368Z,92.81
2022-11-17T03:47:40.108Z,92.39
2022-11-17T03:50:11.968Z,92.72
2022-11-17T03:52:39.751Z,92.67
2022-11-17T03:55:09.079Z,93.01
2022-11-17T03:57:41.392Z,93.29
2022-11-17T04:00:11.871Z,93.44
2022-11-17T04:02:41.608Z,92.98
2022-11-17T04:05:09.526Z,93.34
2022-11-17T04:07:40.031Z,92.55
2022-11-17T04:10:09.259Z,92.87
2022-11-17T04:12:54.528Z,92.99
2022-11-17T04:15:52.385Z,92.76
2022-11-17T04:18:20.128Z,92.66
2022-11-17T04:20:51.337Z,92.41
2022-11-17T04:23:19.061Z,92.30
2022-11-17T04:26:06.023Z,92.47
2022-11-17T04:28:38.677Z,92.67
2022-11-17T04:31:10.180Z,92.55
2022-11-17T04:33:38.981Z,91.86
2022-11-17T04:36:07.370Z,93.06
2022-11-17T04:38:34.872Z,92.68
2022-11-17T04:41:21.519Z,92.21
2022-11-17T04:43:48.960Z,92.25
2022-11-17T04:46:18.775Z,91.97
2022-11-17T04:48:48.481Z,92.28
2022-11-17T04:51:16.255Z,91.81
2022-11-17T04:53:44.196Z,91.48
2022-11-17T04:56:11.884Z,92.02
2022-11-17T04:58:39.348Z,91.80
2022-11-17T05:01:14.061Z,91.90
2022-11-17T05:03:44.521Z,91.09
2022-11-17T05:06:13.389Z,91.46
2022-11-17T05:08:41.164Z,91.86
2022-11-17T05:11:26.991Z,91.45
2022-11-17T05:13:54.912Z,91.70
2022-11-17T05:16:40.867Z,92.26
2022-11-17T05:19:12.482Z,91.85
2022-11-17T05:21:40.156Z,91.59
2022-11-17T05:24:08.356Z,91.93
2022-11-17T05:26:38.091Z,91.52
2022-11-17T05:29:07.117Z,91.91
2022-11-17T05:31:35.311Z,91.66
2022-11-17T05:34:02.997Z,91.48
2022-11-17T05:36:32.031Z,91.42
2022-11-17T05:38:59.693Z,91.43
2022-11-17T05:41:28.691Z,91.28
2022-11-17T05:43:56.847Z,91.10
2022-11-17T05:46:24.595Z,90.94
2022-11-17T05:48:53.267Z,91.22
2022-11-17T05:51:22.623Z,91.07
2022-11-17T05:53:51.619Z,91.29
2022-11-17T05:56:38.130Z,91.05
2022-11-17T05:59:15.861Z,90.69
2022-11-17T06:01:45.215Z,91.12
2022-11-17T06:04:16.262Z,90.76
2022-11-17T06:06:44.580Z,90.66
2022-11-17T06:09:13.422Z,91.23
2022-11-17T06:11:40.908Z,91.01
2022-11-17T06:14:08.417Z,90.90
2022-11-17T06:16:38.408Z,90.79
2022-11-17T06:19:09.510Z,90.91
2022-11-17T06:22:04.609Z,90.94
2022-11-17T06:24:26.420Z,91.03
2022-11-17T06:26:53.961Z,91.18
2022-11-17T06:29:21.451Z,91.54
2022-11-17T06:31:49.015Z,91.60
2022-11-17T06:34:16.681Z,91.22
2022-11-17T06:36:44.143Z,91.14
2022-11-17T06:39:11.624Z,91.01
2022-11-17T06:41:40.650Z,90.90
2022-11-17T06:44:08.131Z,90.76
2022-11-17T06:46:38.888Z,90.86
2022-11-17T06:49:07.138Z,90.42
2022-11-17T06:51:34.756Z,91.25
2022-11-17T06:54:05.243Z,91.25
2022-11-17T06:56:32.688Z,91.31
2022-11-17T06:59:01.468Z,91.20
2022-11-17T07:01:28.939Z,91.72
2022-11-17T07:03:56.394Z,91.32
2022-11-17T07:06:23.843Z,91.11
2022-11-17T07:08:51.698Z,91.58
2022-11-17T07:11:19.970Z,91.80
2022-11-17T07:13:47.434Z,91.91
2022-11-17T07:16:23.173Z,91.61
2022-11-17T07:18:51.576Z,91.73
2022-11-17T07:21:19.112Z,91.25
2022-11-17T07:23:46.527Z,91.55
2022-11-17T07:26:14.265Z,91.86
2022-11-17T07:28:41.826Z,92.04
2022-11-17T07:31:10.014Z,92.34
2022-11-17T07:33:38.817Z,92.46
2022-11-17T07:36:09.338Z,91.84
2022-11-17T07:38:37.637Z,91.73
2022-11-17T07:41:06.668Z,92.28
2022-11-17T07:43:34.987Z,92.69
2022-11-17T07:46:04.898Z,92.30
2022-11-17T07:48:33.390Z,92.34
2022-11-17T07:51:03.034Z,92.25
2022-11-17T07:53:32.319Z,93.10
2022-11-17T07:56:03.969Z,93.17
2022-11-17T07:58:31.605Z,93.08
2022-11-17T08:00:59.250Z,92.63
2022-11-17T08:03:26.787Z,92.77
2022-11-17T08:05:54.622Z,92.91
2022-11-17T08:08:23.522Z,92.71
2022-11-17T08:10:50.951Z,92.82
2022-11-17T08:13:18.383Z,92.88
2022-11-17T08:15:45.862Z,92.64
2022-11-17T08:18:13.293Z,92.95
2022-11-17T08:20:40.767Z,93.30
2022-11-17T08:23:08.770Z,93.39
2022-11-17T08:25:37.550Z,92.56
2022-11-17T08:28:05.343Z,93.23
2022-11-17T08:30:34.761Z,92.94
2022-11-17T08:33:02.392Z,92.92
2022-11-17T08:35:35.856Z,92.59
2022-11-17T08:38:04.721Z,93.91
2022-11-17T08:40:32.303Z,94.15
2022-11-17T08:43:01.783Z,93.19
2022-11-17T08:45:29.629Z,93.00
2022-11-17T08:47:57.436Z,93.41
2022-11-17T08:50:25.163Z,93.12
2022-11-17T08:52:53.046Z,93.71
2022-11-17T08:55:20.667Z,93.23
2022-11-17T08:57:48.183Z,92.96
2022-11-17T09:00:20.476Z,93.57
2022-11-17T09:02:47.968Z,94.20
2022-11-17T09:05:15.531Z,93.44
2022-11-17T09:07:43.116Z,94.03
2022-11-17T09:10:11.273Z,94.08
2022-11-17T09:12:38.862Z,93.95
2022-11-17T09:15:07.258Z,93.91
2022-11-17T09:17:36.215Z,94.59
2022-11-17T09:20:03.749Z,94.18
2022-11-17T09:22:31.198Z,94.19
2022-11-17T09:24:58.631Z,94.38
2022-11-17T09:27:26.118Z,93.72
2022-11-17T09:29:53.595Z,94.45
2022-11-17T09:32:21.043Z,94.35
2022-11-17T09:34:49.911Z,94.08
2022-11-17T09:37:17.374Z,94.10
2022-11-17T09:39:44.943Z,94.30
2022-11-17T09:42:14.387Z,94.29
2022-11-17T09:44:45.210Z,93.91
2022-11-17T09:47:20.822Z,93.58
2022-11-17T09:49:59.073Z,93.57
2022-11-17T09:52:29.538Z,94.13
2022-11-17T09:54:58.389Z,94.20
2022-11-17T09:57:30.686Z,94.43
2022-11-17T10:00:05.899Z,93.99
2022-11-17T10:02:33.634Z,93.83
2022-11-17T10:05:02.611Z,94.12
2022-11-17T10:07:31.638Z,94.17
2022-11-17T10:09:59.515Z,93.97
2022-11-17T10:12:33.402Z,93.71
2022-11-17T10:15:18.198Z,94.56
2022-11-17T10:17:45.703Z,94.13
2022-11-17T10:20:17.438Z,94.53
2022-11-17T10:22:45.292Z,94.82
2022-11-17T10:25:23.003Z,94.96
2022-11-17T10:27:53.789Z,95.33
2022-11-17T10:30:23.331Z,95.49
2022-11-17T10:32:52.950Z,96.02
2022-11-17T10:35:23.722Z,96.38
2022-11-17T10:37:56.319Z,96.93
2022-11-17T10:40:26.093Z,97.44
2022-11-17T10:43:06.649Z,97.27
2022-11-17T10:45:34.418Z,98.05
2022-11-17T10:48:19.888Z,97.69
2022-11-17T10:50:54.316Z,98.02
2022-11-17T10:53:28.791Z,98.43
2022-11-17T10:55:59.235Z,98.06
2022-11-17T10:58:28.478Z,98.49
2022-11-17T11:00:57.267Z,98.43
2022-11-17T11:03:26.329Z,98.88
2022-11-17T11:06:00.853Z,99.28
2022-11-17T11:08:33.366Z,98.87
2022-11-17T11:11:01.223Z,98.72
2022-11-17T11:13:33.670Z,99.12
2022-11-17T11:16:01.142Z,99.41
2022-11-17T11:18:30.294Z,99.42
2022-11-17T11:21:08.626Z,99.41
2022-11-17T11:23:42.462Z,99.39
2022-11-17T11:26:20.607Z,100.00
2022-11-17T11:28:59.812Z,100.00
2022-11-17T11:31:35.783Z,100.00
2022-11-17T11:34:10.655Z,100.00
2022-11-17T11:36:43.026Z,100.00
2022-11-17T11:39:20.572Z,100.00
2022-11-17T11:42:07.511Z,100.00
2022-11-17T11:44:44.710Z,100.00
2022-11-17T11:47:18.767Z,100.00
2022-11-17T11:49:50.427Z,100.00
2022-11-17T11:52:22.319Z,100.00
2022-11-17T11:54:52.395Z,100.00
2022-11-17T11:57:22.698Z,100.00
2022-11-17T11:59:53.519Z,100.00
2022-11-17T12:02:29.147Z,100.00
2022-11-17T12:05:02.215Z,100.00
2022-11-17T12:07:37.131Z,100.00
2022-11-17T12:10:07.632Z,100.00
2022-11-17T12:12:37.790Z,100.00
2022-11-17T12:15:33.322Z,100.00
2022-11-17T12:18:03.688Z,100.00
2022-11-17T12:20:59.023Z,100.00
2022-11-17T12:24:02.052Z,100.00
2022-11-17T12:26:30.808Z,100.00
2022-11-17T12:29:30.563Z,100.00
2022-11-17T12:31:59.375Z,100.00
2022-11-17T12:34:28.924Z,100.00
2022-11-17T12:37:16.160Z,100.00
2022-11-17T12:40:02.888Z,100.00
2022-11-17T12:42:31.212Z,100.00
2022-11-17T12:45:20.215Z,100.00
2022-11-17T12:47:59.420Z,100.00
2022-11-17T12:50:51.226Z,100.00
2022-11-17T12:53:35.244Z,100.00
2022-11-17T12:56:16.347Z,100.00
2022-11-17T12:58:53.720Z,100.00
2022-11-17T13:01:25.684Z,100.00
2022-11-17T13:03:56.097Z,100.00
2022-11-17T13:06:38.981Z,100.00
2022-11-17T13:09:08.520Z,100.00
2022-11-17T13:11:37.319Z,100.00
2022-11-17T13:14:09.573Z,100.00
2022-11-17T13:16:38.114Z,100.00
2022-11-17T13:19:05.650Z,100.00
2022-11-17T13:21:33.999Z,100.00
2022-11-17T13:24:01.456Z,100.00
2022-11-17T13:26:31.383Z,100.00
2022-11-17T13:29:05.813Z,100.00
2022-11-17T13:31:33.440Z,100.00
2022-11-17T13:34:05.379Z,100.00
2022-11-17T13:36:33.342Z,100.00
2022-11-17T13:39:01.439Z,100.00
2022-11-17T13:41:30.523Z,100.00
2022-11-17T13:43:58.293Z,100.00
2022-11-17T13:46:27.158Z,100.00
2022-11-17T13:48:54.618Z,100.00
2022-11-17T13:51:25.391Z,100.00
2022-11-17T13:53:55.239Z,100.00
2022-11-17T13:56:25.142Z,100.00
2022-11-17T13:58:53.058Z,100.00
2022-11-17T14:01:24.854Z,100.00
2022-11-17T14:03:53.659Z,100.00
2022-11-17T14:06:21.115Z,100.00
2022-11-17T14:09:05.329Z,100.00
2022-11-17T14:11:32.930Z,100.00
2022-11-17T14:14:01.198Z,100.00
2022-11-17T14:16:30.394Z,100.00
2022-11-17T14:19:05.171Z,100.00
2022-11-17T14:21:33.409Z,100.00
2022-11-17T14:24:03.937Z,100.00
2022-11-17T14:26:31.607Z,100.00
2022-11-17T14:29:02.140Z,100.00
2022-11-17T14:31:31.363Z,100.00
2022-11-17T14:33:59.674Z,100.00
2022-11-17T14:36:28.666Z,100.00
2022-11-17T14:38:56.151Z,100.00
2022-11-17T14:41:23.602Z,100.00
2022-11-17T14:43:51.323Z,100.00
2022-11-17T14:46:22.206Z,100.00
2022-11-17T14:48:49.704Z,100.00
2022-11-17T14:51:17.467Z,100.00
2022-11-17T14:53:46.896Z,100.00
2022-11-17T14:56:16.285Z,100.00
2022-11-17T14:58:43.722Z,100.00
2022-11-17T15:01:12.577Z,100.00
2022-11-17T15:03:40.159Z,100.00
2022-11-17T15:06:09.323Z,100.00
2022-11-17T15:08:36.884Z,100.00
2022-11-17T15:11:06.438Z,100.00
2022-11-17T15:13:33.922Z,100.00
2022-11-17T15:16:02.857Z,100.00
2022-11-17T15:18:30.585Z,100.00
2022-11-17T15:21:02.194Z,100.00
2022-11-17T15:23:30.046Z,100.00
2022-11-17T15:25:57.539Z,100.00
2022-11-17T15:28:30.482Z,100.00
2022-11-17T15:30:58.263Z,100.00
2022-11-17T15:33:26.072Z,100.00
2022-11-17T15:36:01.582Z,100.00
2022-11-17T15:38:29.184Z,100.00
2022-11-17T15:40:57.854Z,100.00
2022-11-17T15:43:28.826Z,100.00
2022-11-17T15:46:02.630Z,100.00
2022-11-17T15:48:31.434Z,100.00
2022-11-17T15:50:59.577Z,100.00
2022-11-17T15:53:31.983Z,100.00
2022-11-17T15:56:06.254Z,100.00
2022-11-17T15:58:36.689Z,100.00
2022-11-17T16:01:11.695Z,100.00
2022-11-17T16:03:39.447Z,100.00
2022-11-17T16:06:07.347Z,100.00
2022-11-17T16:08:34.883Z,100.00
2022-11-17T16:11:02.380Z,100.00
2022-11-17T16:13:29.859Z,100.00
2022-11-17T16:15:58.703Z,100.00
2022-11-17T16:18:26.304Z,100.00
2022-11-17T16:20:53.891Z,100.00
2022-11-17T16:23:21.486Z,100.00
2022-11-17T16:25:49.625Z,100.00
2022-11-17T16:28:17.966Z,100.00
2022-11-17T16:30:45.715Z,100.00
2022-11-17T16:33:16.350Z,100.00
2022-11-17T16:35:45.322Z,100.00
2022-11-17T16:38:14.971Z,100.00
2022-11-17T16:40:42.510Z,100.00
2022-11-17T16:43:11.486Z,100.00
2022-11-17T16:45:43.050Z,100.00
2022-11-17T16:48:10.571Z,100.00
2022-11-17T16:50:40.645Z,100.00
2022-11-17T16:53:08.126Z,100.00
2022-11-17T16:55:36.212Z,100.00
2022-11-17T16:58:04.083Z,100.00
2022-11-17T17:00:31.967Z,100.00
2022-11-17T17:02:59.559Z,100.00
2022-11-17T17:05:29.235Z,100.00
2022-11-17T17:07:58.080Z,100.00
2022-11-17T17:10:25.560Z,100.00
2022-11-17T17:12:53.094Z,100.00
2022-11-17T17:15:20.590Z,100.00
2022-11-17T17:17:48.043Z,100.00
2022-11-17T17:20:16.010Z,100.00
2022-11-17T17:22:43.435Z,100.00
2022-11-17T17:25:12.392Z,100.00
2022-11-17T17:27:39.831Z,100.00
2022-11-17T17:30:08.109Z,100.00
2022-11-17T17:32:35.539Z,100.00
2022-11-17T17:35:02.979Z,100.00
2022-11-17T17:37:32.662Z,100.00
2022-11-17T17:40:00.107Z,100.00
2022-11-17T17:42:28.879Z,100.00
2022-11-17T17:44:56.346Z,100.00
2022-11-17T17:47:23.890Z,100.00
2022-11-17T17:49:51.373Z,100.00
2022-11-17T17:52:19.026Z,100.00
2022-11-17T17:54:46.462Z,100.00
2022-11-17T17:57:13.893Z,100.00
2022-11-17T17:59:42.667Z,100.00
2022-11-17T18:02:10.146Z,100.00
2022-11-17T18:04:37.998Z,100.00
2022-11-17T18:07:05.790Z,100.00
2022-11-17T18:09:33.691Z,100.00
2022-11-17T18:12:01.149Z,100.00
2022-11-17T18:14:28.803Z,100.00
2022-11-17T18:16:58.505Z,100.00
2022-11-17T18:19:31.527Z,100.00
2022-11-17T18:22:03.915Z,100.00
2022-11-17T18:24:32.285Z,100.00
2022-11-17T18:26:59.757Z,100.00
2022-11-17T18:29:27.300Z,100.00
2022-11-17T18:31:54.799Z,100.00
2022-11-17T18:34:25.194Z,100.00
2022-11-17T18:36:55.340Z,100.00
2022-11-17T18:39:23.201Z,100.00
2022-11-17T18:41:50.686Z,100.00
2022-11-17T18:44:19.498Z,100.00
2022-11-17T18:46:47.166Z,100.00
2022-11-17T18:49:15.070Z,99.89
2022-11-17T18:51:44.032Z,100.00
2022-11-17T18:54:11.887Z,100.00
2022-11-17T18:56:39.807Z,100.00
2022-11-17T18:59:11.255Z,100.00
2022-11-17T19:01:39.789Z,100.00
2022-11-17T19:04:07.696Z,100.00
2022-11-17T19:06:35.536Z,100.00
2022-11-17T19:09:04.618Z,100.00
2022-11-17T19:11:33.455Z,100.00
2022-11-17T19:14:03.129Z,100.00
2022-11-17T19:16:31.710Z,100.00
2022-11-17T19:19:00.140Z,100.00
2022-11-17T19:21:28.723Z,100.00
2022-11-17T19:23:58.229Z,100.00
2022-11-17T19:26:28.281Z,100.00
2022-11-17T19:28:56.774Z,99.61
2022-11-17T19:31:24.534Z,99.98
2022-11-17T19:33:52.273Z,98.98
2022-11-17T19:36:21.390Z,98.88
2022-11-17T19:38:49.665Z,98.25
2022-11-17T19:41:18.792Z,98.26
2022-11-17T19:43:47.833Z,97.99
2022-11-17T19:46:16.743Z,98.47
2022-11-17T19:48:44.655Z,99.64
2022-11-17T19:51:14.813Z,98.88
2022-11-17T19:53:42.501Z,99.43
2022-11-17T19:56:10.096Z,98.76
2022-11-17T19:58:37.573Z,98.65
2022-11-17T20:01:11.090Z,98.05
2022-11-17T20:03:38.727Z,98.58
2022-11-17T20:06:06.882Z,98.38
2022-11-17T20:08:34.538Z,97.41
2022-11-17T20:11:06.742Z,97.90
2022-11-17T20:13:34.449Z,98.04
2022-11-17T20:16:07.441Z,97.77
2022-11-17T20:18:39.222Z,97.44
2022-11-17T20:21:07.365Z,97.56
2022-11-17T20:23:35.396Z,97.36
2022-11-17T20:26:06.106Z,97.04
2022-11-17T20:28:34.169Z,97.82
2022-11-17T20:31:06.699Z,97.65
2022-11-17T20:33:34.256Z,97.85
2022-11-17T20:36:03.846Z,96.99
2022-11-17T20:38:31.787Z,96.77
2022-11-17T20:40:59.835Z,96.70
2022-11-17T20:43:27.906Z,96.57
2022-11-17T20:45:55.652Z,97.01
2022-11-17T20:48:23.632Z,96.80
2022-11-17T20:50:58.195Z,96.45
2022-11-17T20:53:27.539Z,97.29
2022-11-17T20:55:56.223Z,97.45
2022-11-17T20:58:24.302Z,97.33
2022-11-17T21:00:52.128Z,97.03
2022-11-17T21:03:20.062Z,97.43
2022-11-17T21:05:58.467Z,97.05
2022-11-17T21:08:30.603Z,97.33
2022-11-17T21:10:58.995Z,96.89
2022-11-17T21:13:26.667Z,97.05
2022-11-17T21:16:08.203Z,97.08
2022-11-17T21:18:36.815Z,97.59
2022-11-17T21:21:08.556Z,97.53
2022-11-17T21:23:37.874Z,97.54
2022-11-17T21:26:06.081Z,97.75
2022-11-17T21:28:33.566Z,97.76
2022-11-17T21:31:05.367Z,98.00
2022-11-17T21:33:32.981Z,97.19
2022-11-17T21:36:03.671Z,97.60
2022-11-17T21:38:31.400Z,98.01
2022-11-17T21:41:03.747Z,97.68
2022-11-17T21:43:31.362Z,97.77
2022-11-17T21:46:02.122Z,97.54
2022-11-17T21:48:29.807Z,98.15
2022-11-17T21:50:57.462Z,97.49
2022-11-17T21:53:24.935Z,97.85
2022-11-17T21:55:52.408Z,97.72
2022-11-17T21:58:21.191Z,98.02
2022-11-17T22:00:48.650Z,98.80
2022-11-17T22:03:16.165Z,98.33
2022-11-17T22:05:43.603Z,99.12
2022-11-17T22:08:11.180Z,98.58
2022-11-17T22:10:38.700Z,98.79
2022-11-17T22:13:08.211Z,99.34
2022-11-17T22:15:37.008Z,99.06
2022-11-17T22:18:04.578Z,98.53
2022-11-17T22:20:32.015Z,99.41
2022-11-17T22:22:59.459Z,98.46
2022-11-17T22:28:14.640Z,98.74
2022-11-17T22:30:43.425Z,98.10
2022-11-17T22:33:10.846Z,98.68
2022-11-17T22:35:38.382Z,98.60
2022-11-17T22:38:05.861Z,99.16
2022-11-17T22:40:36.411Z,99.13
2022-11-17T22:43:04.736Z,99.54
2022-11-17T22:45:32.808Z,99.11
2022-11-17T22:48:02.517Z,99.47
2022-11-17T22:50:29.965Z,99.36
2022-11-17T22:52:57.462Z,99.59
2022-11-17T22:55:24.942Z,99.13
2022-11-17T22:57:52.436Z,98.88
2022-11-17T23:00:21.130Z,99.42
2022-11-17T23:02:48.581Z,98.51
2022-11-17T23:05:17.432Z,99.19
2022-11-17T23:07:45.096Z,99.16
2022-11-17T23:10:13.011Z,98.58
2022-11-17T23:12:40.475Z,99.24
2022-11-17T23:15:09.060Z,98.12
2022-11-17T23:17:36.692Z,97.56
2022-11-17T23:20:04.556Z,98.09
2022-11-17T23:22:33.909Z,97.39
2022-11-17T23:25:01.365Z,98.31
2022-11-17T23:27:28.814Z,97.88
2022-11-17T23:29:56.287Z,97.77
2022-11-17T23:32:23.803Z,98.85
2022-11-17T23:34:51.294Z,98.03
2022-11-17T23:37:19.347Z,98.61
2022-11-17T23:39:48.149Z,98.38
2022-11-17T23:42:15.605Z,98.09
2022-11-17T23:44:43.039Z,97.86
2022-11-17T23:47:10.488Z,97.89
2022-11-17T23:49:37.943Z,97.10
2022-11-17T23:52:05.618Z,97.76
2022-11-17T23:54:33.271Z,98.12
2022-11-17T23:57:02.043Z,98.14
2022-11-17T23:59:29.549Z,98.40
